Time;durP1;ratioP1;P1;durP2;ratioP2;P2;SDS_P1;SDS_P2;PMS_P1;PMS_P2;Temp;Humidity;BMP_temperature;BMP_pressure;BME280_temperature;BME280_humidity;BME280_pressure;Samples;Min_cycle;Max_cycle;Signal;HPM_P1;HPM_P2
2022/04/08 00:01:38;;;;;;;2.47;1.40;;;6.80;99.90;;;;;;4951010;28;21059;-53
2022/04/08 00:04:06;;;;;;;2.67;1.40;;;6.80;99.90;;;;;;4953693;28;20462;-52
2022/04/08 00:06:33;;;;;;;1.13;1.00;;;6.80;99.90;;;;;;4951291;28;21041;-52
2022/04/08 00:09:00;;;;;;;1.80;1.20;;;6.80;99.90;;;;;;4952115;28;20533;-52
2022/04/08 00:11:27;;;;;;;2.90;1.07;;;6.90;99.90;;;;;;4953176;28;20569;-52
2022/04/08 00:13:53;;;;;;;3.23;1.70;;;7.00;99.90;;;;;;4954795;28;20517;-52
2022/04/08 00:16:20;;;;;;;1.07;0.90;;;6.90;99.90;;;;;;4950297;28;20593;-52
2022/04/08 00:18:48;;;;;;;3.47;1.60;;;6.90;96.70;;;;;;4951433;28;20494;-52
2022/04/08 00:21:16;;;;;;;4.10;1.10;;;6.70;78.50;;;;;;4951753;28;20614;-51
2022/04/08 00:23:43;;;;;;;4.10;1.20;;;6.60;59.80;;;;;;4951662;28;20558;-53
2022/04/08 00:26:10;;;;;;;2.00;0.97;;;6.50;34.00;;;;;;4953245;28;20541;-53
2022/04/08 00:28:36;;;;;;;1.07;0.80;;;6.40;99.90;;;;;;4953792;28;20903;-53
2022/04/08 00:31:04;;;;;;;1.00;0.87;;;6.30;99.90;;;;;;4949151;28;20569;-53
2022/04/08 00:33:31;;;;;;;2.10;0.90;;;6.30;99.90;;;;;;4951975;28;20465;-53
2022/04/08 00:35:58;;;;;;;2.17;1.00;;;6.30;21.30;;;;;;4944538;28;20480;-53
2022/04/08 00:38:26;;;;;;;0.83;0.60;;;6.40;69.70;;;;;;4949622;28;20558;-53
2022/04/08 00:40:52;;;;;;;4.93;0.80;;;6.30;53.70;;;;;;4950112;28;20482;-54
2022/04/08 00:43:20;;;;;;;1.10;0.60;;;6.30;57.60;;;;;;4952327;28;20550;-52
2022/04/08 00:45:54;;;;;;;2.13;0.80;;;6.30;45.90;;;;;;5080834;27;20579;-52
2022/04/08 00:48:21;;;;;;;1.33;1.13;;;6.30;59.40;;;;;;5082748;28;20552;-52
2022/04/08 00:50:47;;;;;;;1.17;0.90;;;6.40;75.60;;;;;;5081297;28;20480;-52
2022/04/08 00:53:14;;;;;;;0.70;0.60;;;6.40;73.40;;;;;;5075597;28;20480;-52
2022/04/08 00:55:41;;;;;;;1.10;0.60;;;6.40;75.80;;;;;;5079527;28;20488;-51
2022/04/08 00:58:07;;;;;;;1.10;1.00;;;6.40;73.40;;;;;;5074454;28;20569;-51
2022/04/08 01:00:36;;;;;;;1.27;0.93;;;6.40;64.80;;;;;;5075371;28;20514;-52
2022/04/08 01:03:04;;;;;;;1.03;0.90;;;6.40;70.90;;;;;;5088811;28;20486;-52
2022/04/08 01:05:32;;;;;;;1.20;0.80;;;6.30;48.90;;;;;;5082724;28;20566;-51
2022/04/08 01:07:58;;;;;;;2.40;0.90;;;6.30;55.80;;;;;;5075575;28;20487;-52
2022/04/08 01:10:25;;;;;;;2.17;0.90;;;6.40;64.80;;;;;;5081787;28;20499;-52
2022/04/08 01:12:52;;;;;;;1.47;1.37;;;6.40;70.70;;;;;;5047673;22;20589;-53
2022/04/08 01:15:20;;;;;;;1.17;0.90;;;6.40;78.30;;;;;;5026837;28;20968;-52
2022/04/08 01:17:47;;;;;;;5.33;1.07;;;6.50;90.60;;;;;;5019886;28;20570;-52
2022/04/08 01:20:15;;;;;;;1.00;0.90;;;6.50;99.90;;;;;;5024975;28;20526;-52
2022/04/08 01:22:42;;;;;;;1.00;1.00;;;6.50;97.00;;;;;;5035429;28;20506;-52
2022/04/08 01:25:12;;;;;;;1.73;0.80;;;6.50;95.30;;;;;;5040385;28;20528;-56
2022/04/08 01:27:39;;;;;;;2.30;1.10;;;6.60;89.60;;;;;;5036571;28;20490;-51
2022/04/08 01:30:08;;;;;;;2.40;0.97;;;6.50;72.30;;;;;;5038352;28;20517;-52
2022/04/08 01:32:35;;;;;;;6.10;1.20;;;6.50;68.10;;;;;;5029941;28;20666;-53
2022/04/08 01:35:03;;;;;;;2.13;1.00;;;6.40;51.20;;;;;;5035173;28;20557;-52
2022/04/08 01:37:29;;;;;;;1.57;1.20;;;6.30;35.20;;;;;;5032313;28;20836;-52
2022/04/08 01:39:56;;;;;;;1.80;1.07;;;6.30;41.20;;;;;;5028347;28;20487;-51
2022/04/08 01:42:24;;;;;;;2.00;1.20;;;6.20;50.90;;;;;;5027086;28;21025;-51
2022/04/08 01:44:52;;;;;;;3.03;1.60;;;6.30;79.50;;;;;;5025768;28;20471;-52
2022/04/08 01:47:19;;;;;;;1.63;0.90;;;6.30;78.90;;;;;;5028014;28;20458;-52
2022/04/08 01:49:45;;;;;;;2.73;1.13;;;6.30;99.90;;;;;;5032706;28;20541;-52
2022/04/08 01:52:12;;;;;;;4.10;1.23;;;6.40;99.90;;;;;;5027329;28;20570;-53
2022/04/08 01:54:39;;;;;;;2.87;1.50;;;6.50;99.90;;;;;;5020329;28;20562;-52
2022/04/08 01:57:05;;;;;;;3.63;3.10;;;6.60;99.90;;;;;;5012695;28;20455;-51
2022/04/08 01:59:33;;;;;;;1.53;1.37;;;6.60;99.90;;;;;;5015023;28;20543;-52
2022/04/08 02:02:00;;;;;;;2.50;1.10;;;6.60;99.90;;;;;;5015741;28;20934;-52
2022/04/08 02:04:27;;;;;;;2.40;1.00;;;6.70;99.90;;;;;;5014484;28;20985;-52
2022/04/08 02:06:54;;;;;;;1.57;1.00;;;6.70;99.90;;;;;;5015324;28;20482;-51
2022/04/08 02:09:20;;;;;;;1.57;1.37;;;6.60;99.90;;;;;;5013736;28;20479;-52
2022/04/08 02:11:47;;;;;;;1.50;1.00;;;6.60;99.90;;;;;;5014782;28;20578;-52
2022/04/08 02:14:14;;;;;;;2.67;1.70;;;6.60;99.90;;;;;;5009927;28;20542;-52
2022/04/08 02:16:42;;;;;;;1.00;1.00;;;6.60;99.90;;;;;;5020080;28;20518;-52
2022/04/08 02:19:08;;;;;;;0.80;0.80;;;6.60;99.90;;;;;;5006317;28;20965;-52
2022/04/08 02:21:35;;;;;;;1.80;1.00;;;6.60;99.90;;;;;;5012410;28;20526;-52
2022/04/08 02:24:03;;;;;;;4.13;1.20;;;6.60;99.90;;;;;;5012249;28;21072;-51
2022/04/08 02:26:30;;;;;;;4.53;1.20;;;6.60;99.90;;;;;;5012153;28;20522;-52
2022/04/08 02:28:56;;;;;;;2.63;1.07;;;6.60;99.90;;;;;;5019581;28;20485;-52
2022/04/08 02:31:23;;;;;;;2.73;1.00;;;6.60;99.90;;;;;;5016146;28;20570;-52
2022/04/08 02:33:51;;;;;;;1.03;0.80;;;6.60;99.90;;;;;;5014403;28;20977;-52
2022/04/08 02:36:17;;;;;;;2.37;1.03;;;6.50;99.90;;;;;;5016336;28;20495;-51
2022/04/08 02:38:44;;;;;;;2.37;1.50;;;6.50;99.90;;;;;;5017394;28;20992;-51
2022/04/08 02:41:10;;;;;;;1.63;1.00;;;6.60;99.90;;;;;;5013647;28;20515;-51
2022/04/08 02:43:37;;;;;;;1.30;1.20;;;6.60;99.90;;;;;;5015406;28;20518;-52
2022/04/08 02:46:03;;;;;;;3.43;1.70;;;6.50;99.90;;;;;;5009671;28;20583;-51
2022/04/08 02:48:30;;;;;;;3.20;1.20;;;6.50;99.90;;;;;;5013731;28;20551;-51
2022/04/08 02:50:58;;;;;;;1.73;1.20;;;6.50;99.90;;;;;;5012034;28;20881;-51
2022/04/08 02:53:24;;;;;;;8.13;1.73;;;6.40;96.10;;;;;;5015682;28;20555;-53
2022/04/08 02:55:51;;;;;;;3.07;1.73;;;6.40;99.90;;;;;;5015281;28;20494;-52
2022/04/08 02:58:17;;;;;;;2.60;1.20;;;6.40;99.90;;;;;;5015574;28;20559;-52
2022/04/08 03:00:44;;;;;;;3.90;1.10;;;6.50;99.90;;;;;;5020566;28;20496;-56
2022/04/08 03:03:10;;;;;;;1.53;1.00;;;6.50;99.90;;;;;;5017677;28;20892;-53
2022/04/08 03:05:37;;;;;;;2.93;1.00;;;6.60;99.90;;;;;;5022273;28;20573;-52
2022/04/08 03:08:05;;;;;;;1.37;0.80;;;6.60;99.90;;;;;;5022747;28;20456;-51
2022/04/08 03:10:33;;;;;;;11.93;1.60;;;6.60;99.90;;;;;;5015291;28;20495;-51
2022/04/08 03:12:59;;;;;;;2.80;1.20;;;6.60;99.90;;;;;;5008064;28;21066;-51
2022/04/08 03:15:26;;;;;;;3.17;1.33;;;6.70;99.90;;;;;;5017165;28;20543;-51
2022/04/08 03:17:52;;;;;;;6.33;1.00;;;6.70;99.90;;;;;;5014054;28;20546;-51
2022/04/08 03:20:19;;;;;;;1.33;0.90;;;6.80;99.90;;;;;;5015671;28;20494;-51
2022/04/08 03:22:46;;;;;;;2.43;1.17;;;6.80;99.90;;;;;;5014731;28;20478;-52
2022/04/08 03:25:13;;;;;;;1.47;0.93;;;6.80;99.90;;;;;;5012955;28;20591;-51
2022/04/08 03:27:40;;;;;;;4.57;1.33;;;6.70;99.90;;;;;;5011922;28;20495;-51
2022/04/08 03:30:08;;;;;;;1.60;1.20;;;6.70;99.90;;;;;;5013760;28;20556;-52
2022/04/08 03:32:34;;;;;;;1.40;1.07;;;6.70;99.90;;;;;;5012033;28;20511;-52
2022/04/08 03:35:01;;;;;;;7.63;1.57;;;6.60;99.90;;;;;;5013048;28;20538;-52
2022/04/08 03:37:28;;;;;;;1.90;1.00;;;6.60;99.90;;;;;;5013111;28;21003;-51
2022/04/08 03:39:54;;;;;;;2.67;1.37;;;6.60;99.90;;;;;;5010383;28;20496;-52
2022/04/08 03:42:23;;;;;;;1.87;1.10;;;6.60;99.90;;;;;;5012748;28;20471;-52
2022/04/08 03:44:51;;;;;;;3.60;1.10;;;6.70;99.90;;;;;;5010952;28;21235;-52
2022/04/08 03:47:17;;;;;;;1.20;1.00;;;6.70;99.90;;;;;;5012444;28;20550;-51
2022/04/08 03:49:44;;;;;;;1.90;1.07;;;6.70;99.90;;;;;;5013328;28;21019;-51
2022/04/08 03:52:11;;;;;;;2.40;1.10;;;6.70;99.90;;;;;;5010972;28;20929;-51
2022/04/08 03:54:38;;;;;;;1.70;1.00;;;6.60;99.90;;;;;;5013376;28;20534;-51
2022/04/08 03:57:05;;;;;;;2.53;1.27;;;6.50;94.60;;;;;;5013795;28;20531;-51
2022/04/08 03:59:33;;;;;;;3.10;0.80;;;6.30;89.70;;;;;;5013048;28;20881;-52
2022/04/08 04:02:01;;;;;;;0.60;0.60;;;6.20;64.50;;;;;;5015988;28;21071;-52
2022/04/08 04:04:27;;;;;;;1.63;0.80;;;6.00;23.90;;;;;;5011894;28;20506;-51
2022/04/08 04:06:54;;;;;;;0.97;0.70;;;5.80;99.90;;;;;;5011992;28;20498;-52
2022/04/08 04:09:21;;;;;;;1.90;0.90;;;5.50;99.90;;;;;;5018178;28;20486;-52
2022/04/08 04:11:47;;;;;;;2.53;0.70;;;5.40;99.90;;;;;;5015778;28;20527;-52
2022/04/08 04:14:14;;;;;;;1.00;0.73;;;5.30;99.90;;;;;;5010981;28;21024;-49
2022/04/08 04:16:42;;;;;;;1.33;0.80;;;5.20;99.90;;;;;;5010938;28;20578;-50
2022/04/08 04:19:09;;;;;;;1.00;0.60;;;5.10;99.90;;;;;;5007777;28;20558;-51
2022/04/08 04:21:35;;;;;;;0.87;0.50;;;5.10;99.90;;;;;;5010302;28;20485;-51
2022/04/08 04:24:02;;;;;;;2.03;1.00;;;5.10;99.90;;;;;;5012325;28;20487;-51
2022/04/08 04:26:28;;;;;;;1.43;0.77;;;5.20;99.90;;;;;;5010985;28;20554;-51
2022/04/08 04:28:55;;;;;;;1.03;0.60;;;5.20;99.90;;;;;;5011440;28;20554;-50
2022/04/08 04:31:21;;;;;;;0.90;0.90;;;5.20;99.90;;;;;;5010675;28;20511;-49
2022/04/08 04:33:49;;;;;;;0.60;0.60;;;5.10;99.90;;;;;;5010101;28;20565;-49
2022/04/08 04:36:16;;;;;;;0.90;0.70;;;5.10;99.90;;;;;;5000095;28;20548;-49
2022/04/08 04:38:42;;;;;;;0.80;0.80;;;5.10;99.90;;;;;;5006037;28;20467;-50
2022/04/08 04:41:10;;;;;;;1.93;1.10;;;5.10;99.90;;;;;;5014343;28;20571;-50
2022/04/08 04:43:37;;;;;;;1.17;1.00;;;5.00;99.90;;;;;;5009567;28;20470;-49
2022/04/08 04:46:04;;;;;;;3.90;1.07;;;5.00;99.90;;;;;;5007310;28;20511;-50
2022/04/08 04:48:31;;;;;;;3.00;1.03;;;5.10;99.90;;;;;;5001659;28;20724;-50
2022/04/08 04:50:58;;;;;;;1.13;1.00;;;5.10;99.90;;;;;;5001310;28;20554;-51
2022/04/08 04:53:25;;;;;;;2.73;0.93;;;5.10;99.90;;;;;;4998897;28;20571;-51
2022/04/08 04:55:52;;;;;;;2.10;1.07;;;5.10;99.90;;;;;;5002120;28;20550;-51
2022/04/08 04:58:19;;;;;;;3.63;1.20;;;5.10;99.90;;;;;;5004597;28;20509;-51
2022/04/08 05:00:45;;;;;;;4.60;1.13;;;5.00;35.30;;;;;;5001526;28;20543;-51
2022/04/08 05:03:13;;;;;;;1.70;1.00;;;5.10;79.40;;;;;;5007007;28;20558;-51
2022/04/08 05:05:40;;;;;;;2.40;1.20;;;5.10;99.90;;;;;;5006799;28;20487;-51
2022/04/08 05:08:08;;;;;;;8.03;1.20;;;5.10;80.00;;;;;;5005492;28;20522;-52
2022/04/08 05:10:35;;;;;;;2.50;1.37;;;5.10;99.90;;;;;;5008424;28;20547;-51
2022/04/08 05:13:02;;;;;;;3.17;1.23;;;5.00;99.90;;;;;;5007584;28;20515;-51
2022/04/08 05:15:32;;;;;;;3.53;1.13;;;5.10;99.90;;;;;;5019651;28;20448;-54
2022/04/08 05:17:59;;;;;;;2.17;1.10;;;5.10;92.80;;;;;;5020331;28;20497;-51
2022/04/08 05:20:26;;;;;;;4.43;1.17;;;5.10;29.30;;;;;;5013175;28;20809;-51
2022/04/08 05:22:53;;;;;;;2.10;1.13;;;5.10;99.10;;;;;;5008716;28;20571;-51
2022/04/08 05:25:21;;;;;;;1.00;1.00;;;5.10;23.70;;;;;;5008204;28;20985;-51
2022/04/08 05:27:47;;;;;;;0.87;0.87;;;5.10;32.40;;;;;;5014350;28;20960;-51
2022/04/08 05:30:17;;;;;;;5.07;2.13;;;5.10;35.80;;;;;;5010700;28;21052;-51
2022/04/08 05:32:44;;;;;;;6.33;1.10;;;5.20;30.90;;;;;;5010381;28;20483;-50
2022/04/08 05:35:10;;;;;;;3.13;1.20;;;5.20;26.60;;;;;;5014398;28;20532;-50
2022/04/08 05:37:39;;;;;;;2.83;1.37;;;5.20;28.50;;;;;;5014290;28;20448;-50
2022/04/08 05:40:07;;;;;;;2.10;1.23;;;5.30;38.40;;;;;;5008225;28;20463;-51
2022/04/08 05:42:35;;;;;;;2.30;1.47;;;5.30;46.20;;;;;;5009982;28;21100;-51
2022/04/08 05:45:01;;;;;;;2.70;1.40;;;5.30;55.60;;;;;;5017192;28;21017;-51
2022/04/08 05:47:28;;;;;;;2.17;1.27;;;5.40;73.80;;;;;;5012789;28;20491;-50
2022/04/08 05:49:59;;;;;;;2.00;1.07;;;5.40;63.70;;;;;;5009326;28;20459;-51
2022/04/08 05:52:26;;;;;;;1.83;1.20;;;5.30;68.10;;;;;;5018286;28;20566;-51
2022/04/08 05:54:52;;;;;;;1.37;1.27;;;5.30;77.00;;;;;;5014665;28;21001;-51
2022/04/08 05:57:19;;;;;;;4.43;1.43;;;5.40;70.60;;;;;;5013786;28;20563;-50
2022/04/08 05:59:48;;;;;;;1.43;1.13;;;5.40;64.90;;;;;;5011311;28;20455;-50
2022/04/08 06:02:14;;;;;;;2.80;1.20;;;5.40;59.80;;;;;;5012576;28;20566;-51
2022/04/08 06:04:41;;;;;;;1.67;1.10;;;5.40;36.60;;;;;;5012373;28;20535;-51
2022/04/08 06:07:08;;;;;;;1.73;1.20;;;5.40;46.70;;;;;;5012250;28;20521;-51
2022/04/08 06:09:35;;;;;;;1.77;1.33;;;5.40;39.70;;;;;;5012508;28;20897;-50
2022/04/08 06:12:01;;;;;;;1.30;1.20;;;5.40;43.90;;;;;;5011774;28;21087;-50
2022/04/08 06:14:28;;;;;;;2.30;1.10;;;5.40;42.70;;;;;;5008556;28;20491;-50
2022/04/08 06:16:56;;;;;;;4.80;1.93;;;5.40;35.40;;;;;;5009017;28;20511;-51
2022/04/08 06:19:22;;;;;;;6.20;1.63;;;5.40;79.80;;;;;;5008829;28;20891;-50
2022/04/08 06:21:49;;;;;;;1.43;1.13;;;5.30;99.90;;;;;;5010171;28;20574;-50
2022/04/08 06:24:15;;;;;;;1.03;0.90;;;4.80;61.80;;;;;;5007806;28;20539;-51
2022/04/08 06:26:42;;;;;;;2.30;0.80;;;4.50;26.50;;;;;;5011598;28;20912;-51
2022/04/08 06:29:09;;;;;;;2.70;0.97;;;4.40;99.90;;;;;;5011485;28;20539;-51
2022/04/08 06:31:35;;;;;;;3.00;1.30;;;4.20;99.90;;;;;;5011737;28;20562;-50
2022/04/08 06:34:03;;;;;;;2.90;1.03;;;4.20;99.90;;;;;;5014066;28;20555;-50
2022/04/08 06:36:30;;;;;;;3.13;1.30;;;4.10;94.00;;;;;;5012297;28;21041;-49
2022/04/08 06:38:57;;;;;;;4.07;1.43;;;4.10;96.90;;;;;;5013084;28;21001;-50
2022/04/08 06:41:23;;;;;;;2.73;1.40;;;4.20;22.60;;;;;;5012072;28;20578;-51
2022/04/08 06:43:50;;;;;;;1.20;0.97;;;4.10;99.30;;;;;;5010218;28;20522;-50
2022/04/08 06:46:17;;;;;;;1.23;1.23;;;4.20;77.40;;;;;;5011829;28;20483;-51
2022/04/08 06:48:43;;;;;;;2.90;1.53;;;4.20;99.90;;;;;;5012853;28;20500;-50
2022/04/08 06:51:11;;;;;;;3.20;1.70;;;4.20;93.10;;;;;;5012760;28;20514;-50
2022/04/08 06:53:38;;;;;;;2.40;1.30;;;4.10;43.60;;;;;;5012330;28;20495;-50
2022/04/08 06:56:05;;;;;;;1.33;1.23;;;4.20;35.50;;;;;;5009999;28;20508;-51
2022/04/08 06:58:38;;;;;;;4.10;1.90;;;4.20;76.80;;;;;;5012449;28;20885;-51
2022/04/08 07:01:05;;;;;;;2.10;1.43;;;4.20;81.90;;;;;;5011204;28;20483;-51
2022/04/08 07:03:32;;;;;;;4.77;1.77;;;4.20;99.90;;;;;;5009162;28;20543;-51
2022/04/08 07:05:58;;;;;;;4.83;1.27;;;4.40;99.90;;;;;;5012459;28;21083;-50
2022/04/08 07:08:26;;;;;;;3.70;1.90;;;4.50;88.40;;;;;;5010966;28;20901;-50
2022/04/08 07:13:21;;;;;;;6.57;2.30;;;4.50;99.90;;;;;;4986666;28;21012;-51
2022/04/08 07:15:47;;;;;;;3.23;1.87;;;4.50;95.40;;;;;;4990687;28;20547;-50
2022/04/08 07:18:14;;;;;;;3.90;1.93;;;4.50;99.90;;;;;;4991164;28;20559;-50
2022/04/08 07:20:41;;;;;;;4.23;1.63;;;4.40;99.90;;;;;;4990615;28;20559;-51
2022/04/08 07:23:07;;;;;;;4.03;1.43;;;4.50;99.90;;;;;;4990206;28;20480;-50
2022/04/08 07:25:35;;;;;;;3.27;1.23;;;4.50;99.90;;;;;;4993236;28;20568;-51
2022/04/08 07:28:03;;;;;;;6.73;2.40;;;4.60;99.90;;;;;;4989188;28;20464;-51
2022/04/08 07:30:30;;;;;;;5.17;1.93;;;4.60;99.90;;;;;;4992994;28;20507;-50
2022/04/08 07:32:57;;;;;;;5.87;1.60;;;4.70;99.90;;;;;;4990961;28;20514;-51
2022/04/08 07:35:25;;;;;;;8.37;2.30;;;4.70;99.90;;;;;;4992067;28;20464;-51
2022/04/08 07:37:53;;;;;;;5.20;1.80;;;4.80;99.90;;;;;;4992017;28;20526;-51
2022/04/08 07:40:20;;;;;;;4.63;2.30;;;4.90;99.90;;;;;;4990464;28;20468;-51
2022/04/08 07:42:48;;;;;;;7.87;2.90;;;5.10;99.90;;;;;;4996666;28;20512;-50
2022/04/08 07:45:14;;;;;;;7.23;2.20;;;5.20;99.90;;;;;;4988625;28;20461;-51
2022/04/08 07:47:41;;;;;;;6.63;2.37;;;5.60;99.90;;;;;;4989918;28;20491;-51
2022/04/08 07:50:10;;;;;;;7.20;2.90;;;6.10;80.00;;;;;;4996843;28;20588;-51
2022/04/08 07:52:37;;;;;;;17.53;1.80;;;6.60;31.60;;;;;;4996630;28;20484;-50
2022/04/08 07:55:04;;;;;;;7.73;2.13;;;6.80;55.60;;;;;;4997140;28;20832;-50
2022/04/08 07:57:31;;;;;;;4.93;1.93;;;6.90;67.30;;;;;;4999915;28;20654;-50
2022/04/08 07:59:59;;;;;;;7.53;1.87;;;7.10;64.30;;;;;;4995448;28;20551;-50
2022/04/08 08:02:26;;;;;;;4.63;1.80;;;7.20;64.80;;;;;;4991842;28;20850;-50
2022/04/08 08:04:52;;;;;;;6.77;2.07;;;7.00;65.50;;;;;;5002676;28;20448;-50
2022/04/08 08:07:19;;;;;;;8.53;2.20;;;7.30;65.70;;;;;;4995917;28;20568;-50
2022/04/08 08:09:46;;;;;;;9.80;2.73;;;7.70;78.10;;;;;;4998556;28;20461;-51
2022/04/08 08:12:12;;;;;;;9.80;2.37;;;7.40;88.10;;;;;;4993749;28;20531;-50
2022/04/08 08:14:39;;;;;;;12.30;3.13;;;8.20;83.40;;;;;;4995722;28;20460;-50
2022/04/08 08:17:07;;;;;;;12.03;4.80;;;8.30;92.40;;;;;;4997285;28;20539;-51
2022/04/08 08:19:34;;;;;;;7.97;3.07;;;8.60;98.90;;;;;;4994968;28;20443;-51
2022/04/08 08:22:00;;;;;;;5.83;2.60;;;8.40;99.90;;;;;;4984699;28;20619;-50
2022/04/08 08:24:27;;;;;;;3.73;1.97;;;8.20;99.90;;;;;;4990201;28;20560;-50
2022/04/08 08:26:53;;;;;;;7.37;2.27;;;8.60;92.30;;;;;;4987251;28;20489;-50
2022/04/08 08:29:20;;;;;;;9.80;1.93;;;8.70;99.90;;;;;;4990715;28;20600;-51
2022/04/08 08:31:46;;;;;;;7.50;2.73;;;9.10;99.90;;;;;;4994059;28;20925;-49
2022/04/08 08:34:14;;;;;;;5.50;2.70;;;8.20;99.90;;;;;;4988712;28;20555;-50
2022/04/08 08:36:41;;;;;;;11.93;2.40;;;8.10;99.90;;;;;;4981379;28;20544;-50
2022/04/08 08:39:07;;;;;;;15.43;3.00;;;8.30;99.90;;;;;;4989218;28;20920;-50
2022/04/08 08:41:34;;;;;;;5.50;1.77;;;8.10;99.90;;;;;;4997237;28;21079;-50
2022/04/08 08:44:01;;;;;;;10.60;2.43;;;7.90;99.90;;;;;;4997276;28;20544;-51
2022/04/08 08:46:29;;;;;;;6.47;2.27;;;7.50;99.90;;;;;;4996318;28;20520;-51
2022/04/08 08:48:57;;;;;;;11.23;3.10;;;7.40;99.90;;;;;;4993239;28;20452;-51
2022/04/08 08:51:26;;;;;;;8.03;2.10;;;7.40;99.90;;;;;;4991399;28;20556;-50
2022/04/08 08:53:54;;;;;;;10.60;2.97;;;8.00;99.90;;;;;;4988997;28;20465;-51
2022/04/08 08:56:21;;;;;;;9.10;2.90;;;8.10;99.90;;;;;;4995613;28;20466;-50
2022/04/08 08:58:47;;;;;;;11.80;2.80;;;8.80;99.90;;;;;;4987474;28;20551;-50
2022/04/08 09:01:14;;;;;;;11.27;3.37;;;8.50;99.90;;;;;;4992131;28;20516;-51
2022/04/08 09:03:42;;;;;;;8.43;2.43;;;8.40;99.90;;;;;;4999464;28;20548;-51
2022/04/08 09:06:10;;;;;;;7.43;2.23;;;8.20;99.90;;;;;;4997006;28;20464;-50
2022/04/08 09:08:40;;;;;;;7.63;2.20;;;8.00;99.90;;;;;;4993696;28;20468;-51
2022/04/08 09:11:07;;;;;;;8.73;2.30;;;7.70;99.90;;;;;;4990891;28;20546;-51
2022/04/08 09:13:44;;;;;;;6.13;2.33;;;7.50;99.90;;;;;;4995839;28;20507;-51
2022/04/08 09:16:11;;;;;;;9.43;3.00;;;7.50;99.90;;;;;;4992962;28;20456;-50
2022/04/08 09:18:41;;;;;;;9.07;2.20;;;7.80;99.90;;;;;;5001059;28;20494;-51
2022/04/08 09:21:08;;;;;;;8.73;2.67;;;7.80;99.90;;;;;;4991569;28;20467;-52
2022/04/08 09:23:35;;;;;;;8.20;2.00;;;7.90;99.90;;;;;;4993134;28;20547;-51
2022/04/08 09:26:05;;;;;;;5.47;2.73;;;7.90;99.90;;;;;;4997611;28;20892;-51
2022/04/08 09:28:36;;;;;;;11.67;4.43;;;7.80;99.90;;;;;;4995272;28;20571;-51
2022/04/08 09:31:03;;;;;;;9.57;3.70;;;7.90;99.90;;;;;;4991908;28;20888;-52
2022/04/08 09:33:31;;;;;;;9.73;2.70;;;7.80;99.90;;;;;;4993429;28;20479;-51
2022/04/08 09:35:59;;;;;;;9.33;2.90;;;8.00;99.90;;;;;;4996638;28;20475;-51
2022/04/08 09:38:27;;;;;;;4.10;2.30;;;8.30;99.90;;;;;;5001217;28;20582;-51
2022/04/08 09:41:00;;;;;;;5.37;2.60;;;8.30;99.90;;;;;;4995316;28;20474;-52
2022/04/08 09:43:33;;;;;;;20.23;3.10;;;8.00;99.90;;;;;;5003593;28;20826;-51
2022/04/08 09:46:15;;;;;;;4.30;1.63;;;7.80;99.90;;;;;;4997103;28;20459;-50
2022/04/08 09:48:42;;;;;;;3.67;2.00;;;7.70;99.90;;;;;;4991037;28;20519;-51
2022/04/08 09:51:10;;;;;;;6.47;2.10;;;7.70;99.90;;;;;;4991449;28;21565;-51
2022/04/08 09:53:38;;;;;;;8.77;1.80;;;7.60;99.90;;;;;;4992718;28;20475;-50
2022/04/08 09:56:10;;;;;;;6.03;2.13;;;7.60;99.90;;;;;;4996607;28;20471;-50
2022/04/08 09:58:41;;;;;;;4.00;1.40;;;7.50;99.90;;;;;;4989931;28;20468;-50
2022/04/08 10:01:09;;;;;;;3.20;1.60;;;7.40;99.90;;;;;;4992633;28;21222;-51
2022/04/08 10:03:36;;;;;;;7.33;2.13;;;7.40;99.90;;;;;;4999402;28;20943;-51
2022/04/08 10:06:03;;;;;;;4.20;1.70;;;7.40;99.90;;;;;;4992415;28;20459;-51
2022/04/08 10:08:31;;;;;;;5.70;1.93;;;7.40;99.90;;;;;;4986804;28;20504;-50
2022/04/08 10:11:05;;;;;;;5.17;1.50;;;7.60;99.90;;;;;;4993244;28;20483;-52
2022/04/08 10:13:44;;;;;;;3.77;1.70;;;7.60;99.90;;;;;;4991470;28;20559;-51
2022/04/08 10:16:15;;;;;;;4.20;2.00;;;8.60;99.90;;;;;;4981883;28;20547;-50
2022/04/08 10:18:43;;;;;;;1.90;1.63;;;8.50;99.90;;;;;;4987459;28;20929;-50
2022/04/08 10:21:10;;;;;;;8.90;2.10;;;8.30;99.90;;;;;;4990100;28;20516;-50
2022/04/08 10:23:39;;;;;;;3.87;1.80;;;8.20;99.90;;;;;;4988700;28;20581;-50
2022/04/08 10:26:07;;;;;;;5.17;1.57;;;8.60;99.90;;;;;;4987925;28;21219;-50
2022/04/08 10:28:38;;;;;;;7.10;1.77;;;8.50;99.90;;;;;;4995827;28;20488;-50
2022/04/08 10:31:15;;;;;;;5.43;1.47;;;8.30;99.90;;;;;;4993687;28;20496;-50
2022/04/08 10:33:48;;;;;;;4.60;1.70;;;8.10;99.90;;;;;;4991053;28;20504;-50
2022/04/08 10:36:14;;;;;;;3.23;1.07;;;8.00;99.90;;;;;;4983279;28;20476;-50
2022/04/08 10:38:41;;;;;;;3.03;1.50;;;8.00;99.90;;;;;;4984405;28;21009;-50
2022/04/08 10:41:09;;;;;;;4.40;1.47;;;8.30;99.90;;;;;;4987088;28;20500;-50
2022/04/08 10:43:44;;;;;;;10.20;1.50;;;8.30;99.90;;;;;;4988794;28;20479;-50
2022/04/08 10:46:12;;;;;;;3.33;1.37;;;8.00;99.90;;;;;;4992933;28;20452;-51
2022/04/08 10:48:39;;;;;;;4.80;2.00;;;8.00;99.90;;;;;;4984907;28;20573;-50
2022/04/08 10:51:07;;;;;;;4.53;1.70;;;7.90;99.90;;;;;;4987615;28;20594;-51
2022/04/08 10:53:34;;;;;;;3.20;1.10;;;8.00;99.90;;;;;;4991643;28;20880;-50
2022/04/08 10:56:09;;;;;;;1.70;1.40;;;7.80;99.90;;;;;;4990117;28;20469;-50
2022/04/08 10:58:40;;;;;;;2.47;2.07;;;7.80;99.90;;;;;;4993629;28;20479;-50
2022/04/08 11:01:19;;;;;;;4.67;1.40;;;7.70;99.90;;;;;;4997630;28;20831;-50
2022/04/08 11:03:53;;;;;;;2.97;2.03;;;7.70;99.90;;;;;;4998555;28;20464;-51
2022/04/08 11:06:20;;;;;;;6.80;2.77;;;7.80;99.90;;;;;;4995496;28;20548;-50
2022/04/08 11:08:46;;;;;;;1.47;1.37;;;8.00;99.90;;;;;;4988230;28;20675;-51
2022/04/08 11:11:13;;;;;;;2.83;1.47;;;8.10;99.90;;;;;;4990721;28;20567;-51
2022/04/08 11:13:41;;;;;;;4.90;1.50;;;8.10;99.90;;;;;;4995554;28;20496;-50
2022/04/08 11:16:07;;;;;;;2.90;1.30;;;8.30;99.90;;;;;;4983956;28;20464;-50
2022/04/08 11:18:36;;;;;;;2.50;1.37;;;8.30;99.90;;;;;;4989997;28;20527;-50
2022/04/08 11:21:02;;;;;;;6.47;1.73;;;8.10;99.90;;;;;;4985366;28;20471;-50
2022/04/08 11:23:32;;;;;;;5.63;1.33;;;8.00;99.90;;;;;;4985973;28;20461;-52
2022/04/08 11:25:59;;;;;;;3.30;2.07;;;7.60;99.90;;;;;;4992218;28;21273;-50
2022/04/08 11:28:26;;;;;;;5.97;1.80;;;7.30;53.80;;;;;;4989568;28;20584;-50
2022/04/08 11:30:57;;;;;;;1.87;1.70;;;7.10;51.50;;;;;;4989306;28;20584;-50
2022/04/08 11:33:23;;;;;;;2.10;1.10;;;7.10;51.30;;;;;;4998680;28;20461;-51
2022/04/08 11:35:58;;;;;;;2.53;1.60;;;7.40;87.90;;;;;;4990466;28;20493;-50
2022/04/08 11:38:25;;;;;;;1.53;1.13;;;7.60;88.60;;;;;;4985202;28;20452;-50
2022/04/08 11:40:52;;;;;;;5.00;2.03;;;7.80;98.20;;;;;;4984798;28;20461;-50
2022/04/08 11:43:20;;;;;;;6.13;2.27;;;8.20;92.40;;;;;;4991296;28;20507;-50
2022/04/08 11:45:49;;;;;;;3.33;1.43;;;8.60;99.90;;;;;;4994558;28;20460;-50
2022/04/08 11:48:19;;;;;;;5.70;1.10;;;8.70;99.90;;;;;;4992565;28;20476;-50
2022/04/08 11:50:47;;;;;;;1.47;1.20;;;8.80;99.90;;;;;;4988575;28;20472;-50
2022/04/08 11:53:16;;;;;;;3.20;1.60;;;8.70;99.90;;;;;;4988874;28;20564;-51
2022/04/08 11:55:53;;;;;;;2.30;1.40;;;8.50;99.90;;;;;;4982549;28;20954;-50
2022/04/08 11:58:20;;;;;;;2.63;1.47;;;8.50;99.90;;;;;;4986992;28;20456;-50
2022/04/08 12:00:48;;;;;;;6.37;2.27;;;8.50;99.90;;;;;;4985791;28;20564;-50
2022/04/08 12:03:20;;;;;;;4.30;2.00;;;8.60;99.90;;;;;;4998240;28;20528;-51
2022/04/08 12:05:48;;;;;;;3.43;1.40;;;8.90;99.90;;;;;;4986577;28;20483;-51
2022/04/08 12:08:16;;;;;;;2.30;1.13;;;9.50;99.90;;;;;;4989834;28;20568;-51
2022/04/08 12:10:43;;;;;;;2.30;1.50;;;9.80;99.90;;;;;;4987915;28;20552;-51
2022/04/08 12:13:14;;;;;;;2.60;1.00;;;9.80;99.90;;;;;;4999529;28;20578;-51
2022/04/08 12:15:43;;;;;;;1.97;1.20;;;10.00;99.90;;;;;;4999781;28;20464;-51
2022/04/08 12:18:10;;;;;;;5.37;2.23;;;9.60;99.90;;;;;;4993733;28;20539;-51
2022/04/08 12:20:39;;;;;;;2.80;1.17;;;9.30;99.90;;;;;;4997450;28;20487;-50
2022/04/08 12:23:06;;;;;;;6.03;1.50;;;8.90;99.90;;;;;;4998948;28;20507;-51
2022/04/08 12:25:36;;;;;;;2.40;1.40;;;8.80;99.90;;;;;;5002012;28;20459;-52
2022/04/08 12:28:09;;;;;;;6.47;1.17;;;8.90;99.90;;;;;;4992063;28;20583;-51
2022/04/08 12:30:36;;;;;;;2.47;1.20;;;9.10;99.90;;;;;;4983908;28;20547;-52
2022/04/08 12:33:03;;;;;;;3.00;1.10;;;9.30;99.90;;;;;;5006528;28;20518;-51
2022/04/08 12:35:29;;;;;;;4.00;1.83;;;9.30;99.90;;;;;;4991853;28;20460;-50
2022/04/08 12:37:59;;;;;;;4.23;1.90;;;9.30;99.90;;;;;;4994678;28;20460;-51
2022/04/08 12:40:26;;;;;;;4.00;1.50;;;9.40;99.90;;;;;;4992271;28;20513;-54
2022/04/08 12:42:54;;;;;;;4.47;1.30;;;9.60;99.90;;;;;;4991311;28;20485;-52
2022/04/08 12:45:21;;;;;;;4.90;1.50;;;9.70;99.90;;;;;;4993845;28;20575;-52
2022/04/08 12:47:48;;;;;;;2.30;1.47;;;10.10;99.90;;;;;;4985068;28;20576;-52
2022/04/08 12:50:15;;;;;;;5.80;1.47;;;10.10;99.90;;;;;;4994347;28;20552;-52
2022/04/08 12:52:41;;;;;;;4.97;1.30;;;10.00;99.90;;;;;;4977112;28;20580;-52
2022/04/08 12:55:09;;;;;;;3.63;1.80;;;10.20;99.90;;;;;;4988419;28;20519;-50
2022/04/08 12:57:36;;;;;;;2.03;1.47;;;10.00;99.90;;;;;;4981581;28;21113;-50
2022/04/08 13:00:11;;;;;;;6.70;1.87;;;9.80;99.90;;;;;;4983171;28;20456;-51